Time;durP1;ratioP1;P1;durP2;ratioP2;P2;SDS_P1;SDS_P2;PMS_P1;PMS_P2;Temp;Humidity;BMP_temperature;BMP_pressure;BME280_temperature;BME280_humidity;BME280_pressure;Samples;Min_cycle;Max_cycle;Signal;HPM_P1;HPM_P2
2022/03/06 00:02:22;;;;;;;74.22;30.90;;;;;;;-0.51;57.99;99086.59;5081887;27;20089;-87
2022/03/06 00:04:47;;;;;;;77.38;30.90;;;;;;;-0.50;58.02;99092.78;5080809;28;20032;-88
2022/03/06 00:07:12;;;;;;;77.32;33.58;;;;;;;-0.52;58.02;99081.38;5086411;27;21005;-87
2022/03/06 00:09:39;;;;;;;70.10;31.52;;;;;;;-0.52;57.68;99086.78;5086815;27;20024;-87
2022/03/06 00:12:05;;;;;;;95.43;39.13;;;;;;;-0.54;58.21;99083.47;5090499;27;20031;-86
2022/03/06 00:14:31;;;;;;;98.53;37.13;;;;;;;-0.52;57.87;99082.22;5091114;27;20036;-88
2022/03/06 00:16:56;;;;;;;98.50;37.25;;;;;;;-0.53;58.40;99085.13;5089041;27;20036;-86
2022/03/06 00:19:21;;;;;;;98.93;37.72;;;;;;;-0.52;58.38;99089.47;5088180;27;20169;-87
2022/03/06 00:21:47;;;;;;;98.43;38.13;;;;;;;-0.53;58.27;99088.66;5081102;28;20035;-80
2022/03/06 00:24:12;;;;;;;93.05;37.30;;;;;;;-0.55;58.44;99085.34;5078488;28;20052;-79
2022/03/06 00:26:39;;;;;;;85.85;35.63;;;;;;;-0.54;58.33;99083.47;5081402;27;20085;-79
2022/03/06 00:29:05;;;;;;;87.65;37.38;;;;;;;-0.55;58.58;99071.03;5085583;27;20028;-79
2022/03/06 00:31:32;;;;;;;86.90;34.22;;;;;;;-0.57;58.60;99076.63;5087042;27;20106;-80
2022/03/06 00:33:57;;;;;;;90.95;36.90;;;;;;;-0.57;58.96;99070.41;5088399;27;20150;-80
2022/03/06 00:36:23;;;;;;;96.10;36.97;;;;;;;-0.61;58.54;99068.13;5088230;27;20027;-80
2022/03/06 00:38:49;;;;;;;90.03;37.13;;;;;;;-0.60;58.91;99075.16;5084700;27;20529;-81
2022/03/06 00:41:15;;;;;;;89.20;37.13;;;;;;;-0.58;58.79;99074.13;5084031;28;20035;-81
2022/03/06 00:43:41;;;;;;;83.53;35.67;;;;;;;-0.60;58.99;99066.28;5079899;27;20200;-81
2022/03/06 00:46:10;;;;;;;71.85;31.98;;;;;;;-0.62;59.02;99073.72;5078873;27;20039;-80
2022/03/06 00:48:35;;;;;;;67.03;30.42;;;;;;;-0.61;59.08;99072.69;5086312;28;20047;-79
2022/03/06 00:51:00;;;;;;;78.03;33.95;;;;;;;-0.59;59.17;99073.31;5083929;28;20027;-79
2022/03/06 00:53:27;;;;;;;84.10;34.47;;;;;;;-0.56;59.40;99080.16;5086686;27;20031;-80
2022/03/06 00:55:52;;;;;;;79.45;33.92;;;;;;;-0.54;59.38;99070.84;5085192;28;20126;-79
2022/03/06 00:58:18;;;;;;;80.63;36.22;;;;;;;-0.55;59.25;99069.19;5085946;28;20489;-79
2022/03/06 01:00:46;;;;;;;79.53;33.88;;;;;;;-0.53;59.25;99063.56;5087402;27;20028;-79
2022/03/06 01:03:15;;;;;;;76.68;34.40;;;;;;;-0.53;59.64;99064.41;5084163;27;20027;-80
2022/03/06 01:05:41;;;;;;;76.68;33.67;;;;;;;-0.53;59.07;99064.41;5078626;27;20214;-79
2022/03/06 01:08:07;;;;;;;70.15;33.65;;;;;;;-0.54;59.45;99056.50;5080530;27;20024;-80
2022/03/06 01:10:35;;;;;;;69.82;31.95;;;;;;;-0.54;59.41;99064.59;5085226;27;20107;-79
2022/03/06 01:13:00;;;;;;;64.15;30.88;;;;;;;-0.52;59.76;99054.44;5085180;28;20046;-78
2022/03/06 01:15:25;;;;;;;65.50;30.73;;;;;;;-0.49;59.38;99064.81;5085269;28;20032;-79
2022/03/06 01:17:51;;;;;;;71.43;33.70;;;;;;;-0.49;59.79;99062.13;5083849;28;20148;-79
2022/03/06 01:20:17;;;;;;;70.93;32.10;;;;;;;-0.50;59.76;99060.44;5087180;27;20108;-79
2022/03/06 01:22:44;;;;;;;65.70;29.67;;;;;;;-0.50;59.88;99060.44;5083244;27;20503;-79
2022/03/06 01:25:10;;;;;;;60.58;27.35;;;;;;;-0.53;59.74;99064.41;5075724;28;20032;-77
2022/03/06 01:27:35;;;;;;;57.08;28.30;;;;;;;-0.51;59.92;99058.78;5074425;28;20028;-80
2022/03/06 01:30:01;;;;;;;62.13;29.90;;;;;;;-0.47;60.01;99063.56;5078325;28;20039;-79
2022/03/06 01:32:26;;;;;;;60.92;28.83;;;;;;;-0.47;60.05;99058.19;5085852;28;20453;-79
2022/03/06 01:34:52;;;;;;;67.95;31.58;;;;;;;-0.49;59.77;99062.13;5083542;28;20031;-79
2022/03/06 01:37:17;;;;;;;64.60;30.05;;;;;;;-0.52;59.91;99057.13;5083496;28;20353;-79
2022/03/06 01:39:43;;;;;;;61.70;29.00;;;;;;;-0.58;59.78;99060.66;5084476;27;20045;-79
2022/03/06 01:42:09;;;;;;;63.88;30.42;;;;;;;-0.56;59.63;99062.13;5083678;27;20370;-81
2022/03/06 01:44:35;;;;;;;74.03;35.22;;;;;;;-0.54;59.95;99054.66;5085592;27;20578;-81
2022/03/06 01:47:01;;;;;;;85.28;40.38;;;;;;;-0.54;60.08;99051.13;5074911;27;20080;-81
2022/03/06 01:49:26;;;;;;;84.40;42.75;;;;;;;-0.54;60.20;99046.59;5075966;27;20032;-80
2022/03/06 01:51:52;;;;;;;71.50;36.75;;;;;;;-0.55;60.25;99058.41;5082633;27;20059;-81
2022/03/06 01:54:17;;;;;;;69.35;37.17;;;;;;;-0.56;59.87;99058.59;5084278;28;20028;-80
2022/03/06 01:56:43;;;;;;;67.13;33.30;;;;;;;-0.59;60.54;99049.06;5083089;28;20040;-80
2022/03/06 01:59:09;;;;;;;63.97;30.15;;;;;;;-0.63;60.27;99050.53;5082739;27;20048;-82
2022/03/06 02:01:34;;;;;;;61.47;28.88;;;;;;;-0.64;60.19;99051.56;5086534;28;20032;-82
2022/03/06 02:04:00;;;;;;;69.70;31.23;;;;;;;-0.63;60.59;99050.53;5084698;27;20919;-82
2022/03/06 02:06:26;;;;;;;63.90;31.13;;;;;;;-0.63;60.47;99051.38;5078337;28;20097;-82
2022/03/06 02:08:52;;;;;;;62.63;30.95;;;;;;;-0.61;60.22;99053.84;5075596;28;20031;-83
2022/03/06 02:11:18;;;;;;;65.00;31.55;;;;;;;-0.57;60.56;99059.63;5075753;28;20499;-82
2022/03/06 02:13:44;;;;;;;69.82;32.92;;;;;;;-0.57;60.98;99057.78;5085051;28;20134;-82
2022/03/06 02:16:10;;;;;;;68.82;31.45;;;;;;;-0.56;60.90;99055.91;5084320;28;21452;-81
2022/03/06 02:18:36;;;;;;;67.10;31.05;;;;;;;-0.54;60.69;99049.28;5083767;28;20028;-82
2022/03/06 02:21:10;;;;;;;77.57;32.05;;;;;;;-0.53;60.83;99047.41;5082842;28;20114;-82
2022/03/06 02:23:35;;;;;;;66.07;31.63;;;;;;;-0.52;60.88;99046.34;5082867;28;20039;-82
2022/03/06 02:26:01;;;;;;;65.07;30.67;;;;;;;-0.51;60.59;99045.31;5084396;28;20414;-81
2022/03/06 02:28:26;;;;;;;67.25;31.48;;;;;;;-0.50;60.80;99042.44;5077075;27;20122;-81
2022/03/06 02:30:52;;;;;;;68.57;29.08;;;;;;;-0.45;61.32;99049.88;5075009;28;20059;-82
2022/03/06 02:33:18;;;;;;;59.38;28.45;;;;;;;-0.44;60.82;99043.44;5083416;28;20147;-80
2022/03/06 02:35:43;;;;;;;67.03;29.52;;;;;;;-0.44;60.89;99040.75;5091512;28;20115;-86
2022/03/06 02:38:09;;;;;;;65.57;30.27;;;;;;;-0.43;61.11;99036.22;5107894;28;20040;-86
2022/03/06 02:40:41;;;;;;;67.72;31.15;;;;;;;-0.41;61.07;99042.22;5107712;28;20031;-84
2022/03/06 02:43:07;;;;;;;74.47;31.52;;;;;;;-0.38;61.07;99037.22;5108769;28;20028;-78
2022/03/06 02:45:33;;;;;;;66.40;30.73;;;;;;;-0.37;60.91;99032.66;5109107;28;20368;-83
2022/03/06 02:47:59;;;;;;;73.53;32.72;;;;;;;-0.39;61.25;99030.19;5107915;28;20385;-80
2022/03/06 02:50:31;;;;;;;70.70;32.03;;;;;;;-0.40;61.24;99031.22;5087333;28;20456;-79
2022/03/06 02:52:58;;;;;;;71.35;32.63;;;;;;;-0.41;60.91;99037.66;5104406;28;20032;-80
2022/03/06 02:55:24;;;;;;;68.75;32.97;;;;;;;-0.44;61.07;99035.38;5105087;28;20049;-80
2022/03/06 02:57:50;;;;;;;72.50;32.47;;;;;;;-0.46;61.43;99032.06;5106040;28;20043;-80
2022/03/06 03:00:18;;;;;;;84.15;35.60;;;;;;;-0.49;60.86;99040.56;5104853;28;20035;-79
2022/03/06 03:02:44;;;;;;;75.80;33.20;;;;;;;-0.51;61.49;99042.63;5106194;28;20031;-80
2022/03/06 03:05:11;;;;;;;90.50;37.88;;;;;;;-0.53;61.32;99037.47;5104895;28;20031;-79
2022/03/06 03:07:44;;;;;;;93.53;39.22;;;;;;;-0.55;61.63;99034.16;5106340;28;20069;-80
2022/03/06 03:10:13;;;;;;;92.13;40.03;;;;;;;-0.55;61.54;99044.94;5104451;28;20019;-79
2022/03/06 03:12:39;;;;;;;111.65;44.70;;;;;;;-0.56;61.76;99045.13;5106423;28;20024;-80
2022/03/06 03:15:07;;;;;;;104.45;42.35;;;;;;;-0.56;61.68;99047.81;5104769;28;20090;-78
2022/03/06 03:17:32;;;;;;;95.70;38.92;;;;;;;-0.57;61.99;99047.00;5104987;28;20114;-78
2022/03/06 03:19:58;;;;;;;83.72;34.80;;;;;;;-0.57;62.20;99038.06;5106213;28;20114;-78
2022/03/06 03:22:23;;;;;;;80.07;33.75;;;;;;;-0.57;62.19;99046.16;5105112;28;20822;-78
2022/03/06 03:24:49;;;;;;;73.80;31.83;;;;;;;-0.59;61.92;99046.38;5106012;28;20361;-78
2022/03/06 03:27:14;;;;;;;72.88;31.48;;;;;;;-0.57;62.22;99038.06;5104802;28;20497;-78
2022/03/06 03:29:39;;;;;;;73.88;32.28;;;;;;;-0.58;62.42;99039.09;5105910;28;20028;-77
2022/03/06 03:32:05;;;;;;;66.95;30.50;;;;;;;-0.57;62.29;99038.06;5105214;28;20043;-77
2022/03/06 03:34:31;;;;;;;71.05;31.25;;;;;;;-0.60;62.71;99040.16;5105980;28;20067;-78
2022/03/06 03:36:56;;;;;;;71.53;32.47;;;;;;;-0.59;63.03;99046.38;5107021;28;21367;-77
2022/03/06 03:39:22;;;;;;;69.25;31.63;;;;;;;-0.60;62.74;99042.84;5108451;28;20020;-77
2022/03/06 03:41:47;;;;;;;84.75;35.58;;;;;;;-0.58;62.94;99039.94;5108988;28;20035;-78
2022/03/06 03:44:12;;;;;;;86.63;35.97;;;;;;;-0.57;62.60;99040.75;5108925;28;20543;-79
2022/03/06 03:46:38;;;;;;;74.32;33.90;;;;;;;-0.57;62.78;99046.16;5110237;28;20023;-80
2022/03/06 03:49:03;;;;;;;69.57;31.27;;;;;;;-0.58;63.09;99044.50;5109789;28;20082;-79
2022/03/06 03:51:29;;;;;;;70.05;30.48;;;;;;;-0.61;63.04;99046.56;5092383;28;20032;-79
2022/03/06 03:53:54;;;;;;;63.15;30.27;;;;;;;-0.60;63.07;99042.03;5110166;28;20028;-79
2022/03/06 03:56:22;;;;;;;68.53;30.52;;;;;;;-0.61;63.01;99045.75;5109678;28;20490;-79
2022/03/06 03:58:49;;;;;;;68.25;31.23;;;;;;;-0.61;63.14;99041.19;5109679;28;20056;-77
2022/03/06 04:01:17;;;;;;;67.63;30.33;;;;;;;-0.60;63.35;99048.22;5108127;28;20035;-75
2022/03/06 04:03:42;;;;;;;71.57;32.10;;;;;;;-0.61;63.33;99043.06;5110286;28;20069;-79
2022/03/06 04:06:07;;;;;;;63.85;29.48;;;;;;;-0.60;63.57;99050.91;5109994;28;20500;-78
2022/03/06 04:08:33;;;;;;;68.22;29.75;;;;;;;-0.58;63.86;99055.28;5109671;28;20059;-78
2022/03/06 04:10:59;;;;;;;70.70;29.77;;;;;;;-0.57;63.52;99059.63;5109625;28;20057;-78
2022/03/06 04:13:26;;;;;;;72.25;32.05;;;;;;;-0.60;63.50;99060.88;5105760;28;20472;-78
2022/03/06 04:15:52;;;;;;;71.95;30.50;;;;;;;-0.60;63.52;99059.00;5110337;28;20746;-78
2022/03/06 04:18:19;;;;;;;67.80;30.45;;;;;;;-0.55;63.69;99052.16;5108641;28;20111;-77
2022/03/06 04:20:44;;;;;;;67.63;30.30;;;;;;;-0.54;63.56;99054.66;5105546;28;20047;-78
2022/03/06 04:23:10;;;;;;;69.00;30.80;;;;;;;-0.54;64.04;99059.22;5108112;28;20078;-79
2022/03/06 04:25:35;;;;;;;71.10;30.58;;;;;;;-0.55;63.74;99061.09;5109115;28;20031;-79
2022/03/06 04:28:01;;;;;;;65.32;30.98;;;;;;;-0.56;63.62;99061.28;5108408;28;20515;-79
2022/03/06 04:30:26;;;;;;;62.33;28.42;;;;;;;-0.57;63.88;99073.09;5109339;28;20137;-79
2022/03/06 04:32:52;;;;;;;64.28;29.42;;;;;;;-0.57;63.76;99065.84;5108803;28;20028;-79
2022/03/06 04:35:18;;;;;;;65.65;30.20;;;;;;;-0.60;63.94;99061.69;5109391;28;20490;-78
2022/03/06 04:37:45;;;;;;;63.30;30.55;;;;;;;-0.60;63.96;99067.09;5108367;28;20031;-78
2022/03/06 04:40:11;;;;;;;65.25;30.60;;;;;;;-0.59;64.05;99065.22;5107461;28;20055;-78
2022/03/06 04:42:37;;;;;;;64.72;28.70;;;;;;;-0.61;64.08;99067.31;5108386;28;20036;-78
2022/03/06 04:45:03;;;;;;;65.05;30.40;;;;;;;-0.62;63.99;99063.81;5107476;28;20038;-78
2022/03/06 04:47:29;;;;;;;62.75;29.98;;;;;;;-0.64;63.94;99062.34;5086291;28;20392;-79
2022/03/06 04:49:54;;;;;;;94.40;37.42;;;;;;;-0.63;64.30;99059.44;5105785;28;20028;-79
2022/03/06 04:52:20;;;;;;;283.88;89.00;;;;;;;-0.61;64.13;99067.31;5088324;28;20665;-79
2022/03/06 04:54:45;;;;;;;161.00;59.35;;;;;;;-0.63;64.31;99064.84;5091216;28;20426;-78
2022/03/06 04:57:11;;;;;;;107.65;47.28;;;;;;;-0.63;64.21;99062.16;5107013;28;20483;-79
2022/03/06 04:59:36;;;;;;;128.02;60.08;;;;;;;-0.66;64.35;99067.09;5105153;28;20051;-79
2022/03/06 05:02:02;;;;;;;129.10;67.20;;;;;;;-0.67;64.39;99070.81;5109526;28;20114;-78
2022/03/06 05:04:27;;;;;;;133.10;69.00;;;;;;;-0.70;64.37;99064.00;5109499;28;20540;-78
2022/03/06 05:06:53;;;;;;;82.57;41.70;;;;;;;-0.69;64.43;99068.34;5110535;28;20035;-78
2022/03/06 05:09:18;;;;;;;129.38;54.17;;;;;;;-0.69;64.37;99060.28;5109050;28;20480;-79
2022/03/06 05:11:43;;;;;;;106.72;45.80;;;;;;;-0.67;64.26;99063.59;5091935;28;20076;-79
2022/03/06 05:14:09;;;;;;;100.05;43.05;;;;;;;-0.68;64.48;99061.09;5109018;28;20781;-79
2022/03/06 05:16:34;;;;;;;156.63;55.97;;;;;;;-0.69;64.53;99064.81;5110046;28;20084;-79
2022/03/06 05:19:00;;;;;;;147.90;49.78;;;;;;;-0.70;64.41;99064.00;5109100;28;20499;-79
2022/03/06 05:21:26;;;;;;;146.77;47.33;;;;;;;-0.68;64.29;99063.78;5109701;28;20046;-78
2022/03/06 05:23:51;;;;;;;130.20;44.67;;;;;;;-0.69;64.43;99056.75;5109691;28;20047;-77
2022/03/06 05:26:17;;;;;;;112.88;39.97;;;;;;;-0.66;64.33;99062.56;5107812;28;20027;-79
2022/03/06 05:28:43;;;;;;;167.13;53.45;;;;;;;-0.67;64.56;99060.06;5108967;28;20403;-79
2022/03/06 05:31:09;;;;;;;152.90;51.22;;;;;;;-0.67;64.48;99062.75;5107745;28;20084;-78
2022/03/06 05:33:35;;;;;;;141.75;44.70;;;;;;;-0.66;64.55;99061.72;5108849;28;20846;-78
2022/03/06 05:36:01;;;;;;;116.32;41.47;;;;;;;-0.64;64.33;99056.94;5089232;28;20042;-79
2022/03/06 05:38:27;;;;;;;106.70;40.63;;;;;;;-0.65;64.30;99058.81;5108929;28;20028;-79
2022/03/06 05:40:52;;;;;;;101.10;40.05;;;;;;;-0.66;64.11;99067.94;5108726;28;20028;-79
2022/03/06 05:43:18;;;;;;;76.68;35.30;;;;;;;-0.68;64.18;99059.25;5108307;28;20024;-79
2022/03/06 05:45:44;;;;;;;61.78;28.35;;;;;;;-0.71;64.32;99059.66;5108506;28;20035;-79
2022/03/06 05:48:10;;;;;;;56.78;27.63;;;;;;;-0.70;64.21;99064.00;5106797;28;20441;-79
2022/03/06 05:50:36;;;;;;;44.95;24.15;;;;;;;-0.69;64.25;99071.06;5107508;28;20028;-79
2022/03/06 05:53:01;;;;;;;48.60;24.83;;;;;;;-0.68;64.14;99064.63;5107490;28;20235;-79
2022/03/06 05:55:29;;;;;;;54.65;30.95;;;;;;;-0.68;64.11;99061.94;5087417;28;20058;-79
2022/03/06 05:57:54;;;;;;;56.70;28.92;;;;;;;-0.63;63.94;99061.28;5107763;28;20040;-79
2022/03/06 06:00:20;;;;;;;53.45;25.10;;;;;;;-0.60;64.19;99058.19;5104605;28;20035;-79
2022/03/06 06:02:45;;;;;;;51.55;25.65;;;;;;;-0.56;64.41;99055.91;5105808;28;20437;-79
2022/03/06 06:05:11;;;;;;;41.38;20.85;;;;;;;-0.55;63.97;99061.09;5104504;28;20077;-79
2022/03/06 06:07:36;;;;;;;40.70;19.40;;;;;;;-0.52;63.75;99059.84;5104238;28;20070;-79
2022/03/06 06:10:03;;;;;;;69.65;27.77;;;;;;;-0.50;63.67;99057.75;5105220;28;20059;-79
2022/03/06 06:12:29;;;;;;;90.72;31.58;;;;;;;-0.44;63.65;99061.50;5102830;28;20024;-78
2022/03/06 06:14:54;;;;;;;86.20;32.55;;;;;;;-0.41;64.03;99067.28;5085962;28;20115;-78
2022/03/06 06:17:20;;;;;;;100.65;35.75;;;;;;;-0.34;63.76;99057.34;5101861;28;20272;-78
2022/03/06 06:19:45;;;;;;;79.43;30.90;;;;;;;-0.23;63.82;99057.72;5103597;28;20073;-77
2022/03/06 06:22:11;;;;;;;74.30;29.35;;;;;;;-0.15;63.66;99057.47;5104680;28;20036;-78
2022/03/06 06:24:36;;;;;;;61.35;25.13;;;;;;;-0.11;63.36;99063.28;5107328;28;20073;-78
2022/03/06 06:27:02;;;;;;;64.35;25.83;;;;;;;-0.10;63.33;99054.97;5106033;28;20036;-78
2022/03/06 06:29:28;;;;;;;61.70;24.95;;;;;;;-0.12;63.10;99054.38;5108207;28;20028;-79
2022/03/06 06:31:53;;;;;;;53.90;23.88;;;;;;;-0.18;62.76;99063.28;5109607;28;20015;-78
2022/03/06 06:34:20;;;;;;;59.47;24.25;;;;;;;-0.26;63.13;99058.97;5109748;28;20121;-79
2022/03/06 06:36:46;;;;;;;61.22;25.63;;;;;;;-0.31;62.77;99066.84;5108180;28;20040;-79
2022/03/06 06:39:12;;;;;;;58.50;24.23;;;;;;;-0.34;62.82;99070.81;5090803;28;20391;-79
2022/03/06 06:41:39;;;;;;;50.35;22.63;;;;;;;-0.31;62.75;99078.47;5109819;28;20031;-79
2022/03/06 06:44:05;;;;;;;50.45;22.23;;;;;;;-0.24;63.07;99067.66;5109605;28;20020;-79
2022/03/06 06:46:31;;;;;;;46.28;20.75;;;;;;;-0.15;62.77;99076.34;5105239;28;20027;-79
2022/03/06 06:48:57;;;;;;;36.28;17.02;;;;;;;-0.08;62.87;99079.06;5107815;28;20499;-78
2022/03/06 06:51:22;;;;;;;33.85;17.25;;;;;;;0.05;63.24;99080.88;5089874;28;20718;-78
2022/03/06 06:53:47;;;;;;;38.33;18.33;;;;;;;0.17;62.84;99083.75;5109509;28;20050;-79
2022/03/06 06:56:13;;;;;;;36.70;17.52;;;;;;;0.22;62.50;99082.06;5110065;28;20047;-79
2022/03/06 06:58:40;;;;;;;31.95;16.52;;;;;;;0.29;62.37;99077.47;5104497;28;20094;-78
2022/03/06 07:01:06;;;;;;;34.28;16.52;;;;;;;0.37;62.22;99078.28;5109699;28;20024;-77
2022/03/06 07:03:31;;;;;;;27.63;14.48;;;;;;;0.39;62.16;99078.88;5105929;28;20096;-79
2022/03/06 07:05:58;;;;;;;24.02;12.40;;;;;;;0.38;60.87;99075.38;5109504;28;20365;-78
2022/03/06 07:08:23;;;;;;;27.00;14.25;;;;;;;0.39;60.72;99071.63;5108975;28;20031;-79
2022/03/06 07:10:49;;;;;;;23.80;12.43;;;;;;;0.39;60.70;99077.03;5108924;28;20028;-77
2022/03/06 07:13:15;;;;;;;25.00;13.43;;;;;;;0.43;60.22;99085.50;5110255;28;20055;-78
2022/03/06 07:15:40;;;;;;;24.98;14.05;;;;;;;0.49;60.52;99075.72;5113689;28;20027;-79
2022/03/06 07:18:06;;;;;;;36.38;19.75;;;;;;;0.52;60.07;99080.69;5112720;28;20035;-79
2022/03/06 07:20:31;;;;;;;31.85;17.67;;;;;;;0.53;59.50;99080.50;5113242;28;20038;-79
2022/03/06 07:22:57;;;;;;;28.38;15.95;;;;;;;0.54;59.60;99079.44;5111662;28;20054;-79
2022/03/06 07:25:22;;;;;;;26.77;17.58;;;;;;;0.51;58.95;99079.03;5112673;28;21843;-79
2022/03/06 07:27:48;;;;;;;19.33;11.45;;;;;;;0.50;58.99;99083.63;5113266;28;20128;-78
2022/03/06 07:30:14;;;;;;;18.10;9.85;;;;;;;0.57;58.40;99094.38;5111846;28;20045;-79
2022/03/06 07:32:43;;;;;;;12.13;7.85;;;;;;;0.61;58.24;99084.81;5112571;28;20019;-79
2022/03/06 07:35:10;;;;;;;10.68;6.57;;;;;;;0.71;58.25;99084.31;5094557;28;20038;-79
2022/03/06 07:37:36;;;;;;;11.85;6.75;;;;;;;0.75;57.17;99082.84;5113449;28;20051;-79
2022/03/06 07:40:02;;;;;;;11.75;7.22;;;;;;;0.78;57.40;99079.72;5112551;28;20487;-79
2022/03/06 07:42:28;;;;;;;15.18;10.27;;;;;;;0.84;57.03;99078.00;5112633;28;20024;-79
2022/03/06 07:44:53;;;;;;;13.50;7.57;;;;;;;0.92;57.02;99079.66;5113182;28;20028;-79
2022/03/06 07:47:18;;;;;;;9.40;6.55;;;;;;;0.99;57.10;99075.84;5109846;28;20034;-78
2022/03/06 07:49:44;;;;;;;14.38;9.05;;;;;;;1.04;56.72;99077.88;5112397;28;20036;-78
2022/03/06 07:52:09;;;;;;;17.00;9.90;;;;;;;0.99;56.71;99075.84;5111240;28;20059;-78
2022/03/06 07:54:35;;;;;;;17.48;10.52;;;;;;;0.96;56.04;99075.47;5112605;28;20036;-78
2022/03/06 07:57:00;;;;;;;19.30;9.98;;;;;;;0.99;56.78;99075.03;5094227;28;20042;-79
2022/03/06 07:59:25;;;;;;;19.08;11.43;;;;;;;1.00;56.43;99072.09;5110417;28;20040;-80
2022/03/06 08:01:52;;;;;;;17.95;10.98;;;;;;;1.08;57.08;99067.50;5112523;28;20031;-79
2022/03/06 08:04:18;;;;;;;19.70;10.52;;;;;;;1.07;56.41;99068.53;5111815;28;20036;-79
2022/03/06 08:06:44;;;;;;;16.23;8.50;;;;;;;1.06;56.39;99066.88;5112486;28;20036;-80
2022/03/06 08:09:09;;;;;;;31.80;16.38;;;;;;;1.10;55.69;99065.41;5111478;28;20682;-79
2022/03/06 08:11:35;;;;;;;25.92;14.40;;;;;;;1.12;56.31;99064.13;5112253;28;20023;-80
2022/03/06 08:14:00;;;;;;;19.95;11.55;;;;;;;1.14;56.16;99070.13;5112159;28;20126;-80
2022/03/06 08:16:25;;;;;;;20.83;10.77;;;;;;;1.18;56.49;99067.84;5111902;28;20020;-80
2022/03/06 08:18:51;;;;;;;25.80;13.50;;;;;;;1.14;56.22;99072.84;5112111;28;20027;-80
2022/03/06 08:21:16;;;;;;;19.08;10.40;;;;;;;1.03;55.99;99070.81;5107411;28;20471;-80
2022/03/06 08:23:41;;;;;;;17.92;9.68;;;;;;;0.94;56.30;99067.56;5091725;28;20130;-80
2022/03/06 08:26:07;;;;;;;17.58;8.82;;;;;;;0.93;56.30;99065.09;5110943;28;20030;-80
2022/03/06 08:28:32;;;;;;;24.85;13.32;;;;;;;0.84;55.96;99076.16;5111132;28;20031;-80
2022/03/06 08:30:58;;;;;;;24.48;13.18;;;;;;;0.77;55.84;99063.75;5110866;28;20032;-81
2022/03/06 08:33:23;;;;;;;29.15;15.10;;;;;;;0.68;56.55;99061.31;5091892;28;20119;-79
2022/03/06 08:35:49;;;;;;;25.42;15.15;;;;;;;0.67;56.58;99061.50;5110682;28;20019;-80
2022/03/06 08:38:14;;;;;;;35.00;18.33;;;;;;;0.66;56.71;99063.41;5110672;28;20498;-79
2022/03/06 08:40:40;;;;;;;27.98;14.75;;;;;;;0.66;56.77;99058.00;5110131;28;20032;-79
2022/03/06 08:43:05;;;;;;;27.77;14.18;;;;;;;0.75;56.92;99061.25;5110268;28;20043;-79
2022/03/06 08:45:31;;;;;;;20.30;10.68;;;;;;;0.87;56.24;99059.53;5110375;28;20024;-78
2022/03/06 08:47:56;;;;;;;13.13;8.05;;;;;;;1.02;56.83;99063.78;5110557;28;20080;-79
2022/03/06 08:50:22;;;;;;;20.23;9.80;;;;;;;1.21;56.70;99061.16;5089848;28;20095;-79
2022/03/06 08:52:47;;;;;;;30.15;13.85;;;;;;;1.38;55.86;99056.88;5110233;28;20112;-79
2022/03/06 08:55:12;;;;;;;27.50;13.68;;;;;;;1.53;55.77;99048.41;5109187;28;20031;-80
2022/03/06 08:57:38;;;;;;;27.88;14.30;;;;;;;1.69;55.42;99052.41;5108922;28;20040;-80
2022/03/06 09:00:06;;;;;;;24.10;12.40;;;;;;;1.79;53.46;99046.47;5106411;28;20084;-80
2022/03/06 09:02:31;;;;;;;16.85;8.88;;;;;;;1.76;53.31;99047.75;5090193;28;20023;-80
2022/03/06 09:04:57;;;;;;;27.42;14.50;;;;;;;1.69;53.10;99047.00;5111371;28;20093;-80
2022/03/06 09:07:23;;;;;;;15.88;9.48;;;;;;;1.65;53.42;99051.19;5091359;28;20454;-80
2022/03/06 09:09:49;;;;;;;16.70;9.75;;;;;;;1.57;53.11;99056.88;5109686;28;20434;-80
2022/03/06 09:12:15;;;;;;;16.33;9.10;;;;;;;1.51;53.85;99050.50;5107821;28;20070;-80
2022/03/06 09:14:41;;;;;;;17.50;9.57;;;;;;;1.41;53.57;99056.41;5109747;28;20491;-80
2022/03/06 09:17:09;;;;;;;18.35;10.10;;;;;;;1.33;53.91;99059.41;5109294;28;20031;-80
2022/03/06 09:19:35;;;;;;;17.27;10.25;;;;;;;1.22;54.39;99060.09;5091757;28;20051;-79
2022/03/06 09:22:00;;;;;;;18.15;10.05;;;;;;;1.16;54.45;99059.94;5109309;28;20442;-81
2022/03/06 09:24:25;;;;;;;18.25;10.18;;;;;;;1.15;54.71;99060.16;5109581;28;20031;-81
2022/03/06 09:26:51;;;;;;;16.55;9.68;;;;;;;1.15;54.40;99060.97;5109081;28;20032;-79
2022/03/06 09:29:16;;;;;;;16.80;9.02;;;;;;;1.23;54.76;99061.75;5108461;28;20036;-81
2022/03/06 09:31:43;;;;;;;16.33;10.77;;;;;;;1.47;55.18;99062.81;5108513;28;20141;-80
2022/03/06 09:34:10;;;;;;;18.38;10.73;;;;;;;1.66;55.29;99047.44;5113700;27;20061;-79
2022/03/06 09:36:36;;;;;;;16.83;9.18;;;;;;;1.89;54.95;99054.06;5112431;27;20454;-80
2022/03/06 09:39:04;;;;;;;17.02;9.20;;;;;;;2.11;55.37;99057.16;5111290;28;20026;-81
2022/03/06 09:41:30;;;;;;;17.08;9.90;;;;;;;2.26;53.93;99056.75;5110465;28;20019;-81
2022/03/06 09:43:56;;;;;;;17.85;10.70;;;;;;;2.47;54.99;99041.09;5109846;28;20034;-82
2022/03/06 09:46:22;;;;;;;17.30;8.50;;;;;;;2.72;54.19;99043.69;5109816;28;20035;-87
2022/03/06 09:48:49;;;;;;;21.15;10.82;;;;;;;2.74;53.50;99040.72;5108754;28;20023;-85
2022/03/06 09:51:15;;;;;;;18.50;9.50;;;;;;;2.76;53.28;99039.47;5106495;28;20035;-84
2022/03/06 09:53:40;;;;;;;19.20;11.55;;;;;;;2.81;53.27;99041.47;5105994;28;20069;-84
2022/03/06 09:56:06;;;;;;;17.15;10.30;;;;;;;2.76;52.58;99047.59;5109338;27;20057;-86
2022/03/06 09:58:32;;;;;;;15.55;9.07;;;;;;;2.75;52.62;99047.81;5110540;27;20403;-84
2022/03/06 10:00:58;;;;;;;15.80;9.27;;;;;;;2.70;51.87;99045.78;5108960;28;20035;-86
2022/03/06 10:03:24;;;;;;;15.90;8.98;;;;;;;2.67;52.14;99043.53;5114001;27;20030;-88
2022/03/06 10:05:50;;;;;;;14.27;7.50;;;;;;;2.64;52.29;99044.84;5093333;28;20066;-87
2022/03/06 10:08:23;;;;;;;15.35;8.05;;;;;;;2.63;52.16;99048.59;5090003;28;20124;-87
2022/03/06 10:11:21;;;;;;;14.15;7.80;;;;;;;2.48;51.06;99046.28;5108892;28;20020;-85
2022/03/06 10:13:46;;;;;;;10.15;6.82;;;;;;;2.20;49.70;99042.28;5080052;28;20105;-86
2022/03/06 10:16:12;;;;;;;10.70;6.72;;;;;;;2.03;50.53;99042.06;5113727;28;20102;-84
2022/03/06 10:18:48;;;;;;;16.80;8.90;;;;;;;1.97;49.87;99047.56;5108980;28;20214;-85
2022/03/06 10:21:17;;;;;;;19.52;10.68;;;;;;;1.87;50.92;99051.59;5109144;28;20028;-80
2022/03/06 10:23:43;;;;;;;19.20;10.02;;;;;;;1.81;50.82;99052.50;5109119;28;20101;-84
2022/03/06 10:26:11;;;;;;;13.52;8.02;;;;;;;1.73;51.48;99047.38;5109626;28;20016;-85
2022/03/06 10:28:49;;;;;;;11.95;7.30;;;;;;;1.74;51.38;99052.56;5108502;28;20069;-86
2022/03/06 10:31:17;;;;;;;11.45;6.75;;;;;;;1.75;51.34;99050.69;5108937;28;20023;-87
2022/03/06 10:33:54;;;;;;;12.07;7.47;;;;;;;1.78;51.68;99050.22;5109024;28;20052;-86
2022/03/06 10:36:34;;;;;;;15.90;9.35;;;;;;;1.78;50.96;99051.06;5108392;28;20020;-85
2022/03/06 10:39:01;;;;;;;25.80;12.65;;;;;;;1.71;52.03;99042.19;5107615;28;20463;-86
2022/03/06 10:41:38;;;;;;;32.47;15.73;;;;;;;1.62;51.29;99052.50;5109023;28;20019;-86
2022/03/06 10:44:06;;;;;;;27.20;14.35;;;;;;;1.57;51.73;99046.06;5105844;28;20015;-86
2022/03/06 10:46:34;;;;;;;22.50;12.80;;;;;;;1.54;51.90;99044.66;5108637;28;20032;-86
2022/03/06 10:49:07;;;;;;;29.73;14.93;;;;;;;1.57;52.01;99038.81;5110561;28;20126;-84
2022/03/06 10:51:37;;;;;;;23.63;12.15;;;;;;;1.50;51.94;99040.75;5108838;28;20088;-84
2022/03/06 10:54:02;;;;;;;17.25;9.35;;;;;;;1.42;51.53;99028.34;5109100;28;20445;-84
2022/03/06 10:56:28;;;;;;;17.25;8.52;;;;;;;1.46;51.89;99031.41;5114386;27;20016;-83
2022/03/06 10:58:56;;;;;;;18.92;9.45;;;;;;;1.55;52.05;99024.69;5112271;27;20040;-83
2022/03/06 11:01:22;;;;;;;13.43;7.50;;;;;;;1.60;51.29;99029.41;5112561;28;20065;-83
2022/03/06 11:03:50;;;;;;;52.97;23.20;;;;;;;1.61;51.16;99031.06;5113195;28;20064;-83
2022/03/06 11:06:15;;;;;;;109.50;44.67;;;;;;;1.70;51.35;99029.72;5112753;28;20019;-83
2022/03/06 11:08:41;;;;;;;46.35;22.27;;;;;;;1.77;51.57;99029.66;5112770;28;20031;-84
2022/03/06 11:11:08;;;;;;;35.50;18.27;;;;;;;1.89;51.99;99035.13;5112050;28;20018;-84
2022/03/06 11:13:34;;;;;;;19.85;10.98;;;;;;;1.98;51.09;99022.16;5094423;28;20084;-84
2022/03/06 11:16:01;;;;;;;18.52;9.88;;;;;;;2.02;50.92;99020.66;5112967;28;20421;-84
2022/03/06 11:18:28;;;;;;;14.65;8.27;;;;;;;1.98;50.15;99024.84;5112734;28;20658;-83